Time;durP1;ratioP1;P1;durP2;ratioP2;P2;SDS_P1;SDS_P2;PMS_P1;PMS_P2;Temp;Humidity;BMP_temperature;BMP_pressure;BME280_temperature;BME280_humidity;BME280_pressure;Samples;Min_cycle;Max_cycle;Signal;HPM_P1;HPM_P2
2023/08/25 00:02:16;;;;;;;0.00;0.00;;;;;;;;;;6250599;22;20000;-91
2023/08/25 00:04:42;;;;;;;0.00;0.00;;;;;;;;;;6251552;22;20000;-91
2023/08/25 00:07:08;;;;;;;0.00;0.00;;;;;;;;;;6252361;22;20063;-91
2023/08/25 00:09:34;;;;;;;0.00;0.00;;;;;;;;;;6252528;22;20016;-92
2023/08/25 00:12:03;;;;;;;0.00;0.00;;;;;;;;;;6252316;22;20023;-91
2023/08/25 00:14:29;;;;;;;0.00;0.00;;;;;;;;;;6253027;22;20000;-91
2023/08/25 00:16:55;;;;;;;0.00;0.00;;;;;;;;;;6250655;22;20060;-91
2023/08/25 00:19:21;;;;;;;0.00;0.00;;;;;;;;;;6252294;22;20000;-92
2023/08/25 00:21:47;;;;;;;0.00;0.00;;;;;;;;;;6251303;22;20007;-92
2023/08/25 00:24:13;;;;;;;0.00;0.00;;;;;;;;;;6251904;22;20010;-91
2023/08/25 00:26:39;;;;;;;0.00;0.00;;;;;;;;;;6250896;22;20023;-91
2023/08/25 00:29:05;;;;;;;0.00;0.00;;;;;;;;;;6252637;22;20330;-91
2023/08/25 00:31:32;;;;;;;0.00;0.00;;;;;;;;;;6251354;22;20007;-91
2023/08/25 00:33:58;;;;;;;0.00;0.00;;;;;;;;;;6252892;22;20348;-91
2023/08/25 00:36:24;;;;;;;0.00;0.00;;;;;;;;;;6251219;22;20361;-92
2023/08/25 00:38:52;;;;;;;0.00;0.00;;;20.50;99.90;;;;;;6251083;22;20086;-92
2023/08/25 00:41:18;;;;;;;0.00;0.00;;;;;;;;;;6251611;22;20432;-92
2023/08/25 00:43:44;;;;;;;0.00;0.00;;;;;;;;;;6251798;22;20077;-92
2023/08/25 00:46:12;;;;;;;0.00;0.00;;;20.60;99.90;;;;;;6250493;22;20328;-91
2023/08/25 00:48:38;;;;;;;0.00;0.00;;;20.60;99.90;;;;;;6250291;22;20003;-92
2023/08/25 00:51:05;;;;;;;0.00;0.00;;;20.60;99.90;;;;;;6249479;22;20014;-91
2023/08/25 00:53:35;;;;;;;0.00;0.00;;;20.70;99.90;;;;;;6250132;22;20012;-91
2023/08/25 00:56:02;;;;;;;0.00;0.00;;;20.70;99.90;;;;;;6250728;22;20010;-92
2023/08/25 00:58:28;;;;;;;0.00;0.00;;;;;;;;;;6247788;22;20003;-91
2023/08/25 01:00:54;;;;;;;0.00;0.00;;;;;;;;;;6248005;22;20018;-91
2023/08/25 01:03:21;;;;;;;0.00;0.00;;;;;;;;;;6250927;22;20003;-91
2023/08/25 01:05:48;;;;;;;0.00;0.00;;;;;;;;;;6250593;22;20015;-91
2023/08/25 01:08:15;;;;;;;0.00;0.00;;;20.70;99.90;;;;;;6251257;22;20475;-91
2023/08/25 01:11:02;;;;;;;0.00;0.00;;;20.70;99.90;;;;;;6253083;22;20038;-91
2023/08/25 01:13:39;;;;;;;0.00;0.00;;;20.80;99.90;;;;;;6250112;22;20003;-90
2023/08/25 01:16:07;;;;;;;0.00;0.00;;;20.80;99.90;;;;;;6251624;22;20003;-92
2023/08/25 01:18:34;;;;;;;0.00;0.00;;;;;;;;;;6251411;22;20165;-92
2023/08/25 01:21:03;;;;;;;0.00;0.00;;;20.90;99.90;;;;;;6252103;22;20478;-91
2023/08/25 01:23:37;;;;;;;0.00;0.00;;;20.80;99.90;;;;;;6252433;22;20384;-92
2023/08/25 01:26:03;;;;;;;0.00;0.00;;;;;;;;;;6252234;22;20035;-91
2023/08/25 01:28:29;;;;;;;0.00;0.00;;;;;;;;;;6251616;22;20004;-91
2023/08/25 01:30:58;;;;;;;0.00;0.00;;;;;;;;;;6251691;22;20008;-91
2023/08/25 01:33:26;;;;;;;0.00;0.00;;;20.60;99.90;;;;;;6252654;22;20351;-91
2023/08/25 01:36:25;;;;;;;0.00;0.00;;;20.50;99.90;;;;;;6251779;22;20004;-90
2023/08/25 01:38:58;;;;;;;0.00;0.00;;;20.40;99.90;;;;;;6251735;22;20011;-91
2023/08/25 01:41:29;;;;;;;0.00;0.00;;;21.20;99.90;;;;;;6252513;22;20007;-91
2023/08/25 01:43:56;;;;;;;0.00;0.00;;;20.30;99.90;;;;;;6251537;22;19999;-92
2023/08/25 01:46:23;;;;;;;0.00;0.00;;;22.80;99.90;;;;;;6251413;22;19999;-91
2023/08/25 01:48:52;;;;;;;0.00;0.00;;;20.20;99.90;;;;;;6252065;22;20000;-90
2023/08/25 01:51:18;;;;;;;;;;;21.60;99.90;;;;;;6251416;22;20003;-91
2023/08/25 01:53:44;;;;;;;0.00;0.00;;;;;;;;;;6252988;22;19900;-91
2023/08/25 01:56:10;;;;;;;0.00;0.00;;;;;;;;;;6251401;22;20344;-93
2023/08/25 01:58:36;;;;;;;0.00;0.00;;;;;;;;;;6253543;22;20010;-90
2023/08/25 02:01:03;;;;;;;0.00;0.00;;;;;;;;;;6252256;22;20007;-91
2023/08/25 02:03:29;;;;;;;0.00;0.00;;;;;;;;;;6254455;22;20000;-92
2023/08/25 02:05:55;;;;;;;0.00;0.00;;;;;;;;;;6253326;22;20004;-90
2023/08/25 02:08:21;;;;;;;0.00;0.00;;;;;;;;;;6254626;22;20016;-90
2023/08/25 02:10:47;;;;;;;0.00;0.00;;;;;;;;;;6255415;22;20004;-92
2023/08/25 02:13:13;;;;;;;0.00;0.00;;;;;;;;;;6255701;22;20007;-90
2023/08/25 02:15:46;;;;;;;0.00;0.00;;;19.70;99.90;;;;;;6257313;22;19996;-90
2023/08/25 02:18:12;;;;;;;0.00;0.00;;;19.60;99.90;;;;;;6257284;22;20348;-91
2023/08/25 02:20:41;;;;;;;0.00;0.00;;;;;;;;;;6257088;22;20015;-91
2023/08/25 02:23:07;;;;;;;0.00;0.00;;;;;;;;;;6258086;22;20002;-90
2023/08/25 02:25:33;;;;;;;0.00;0.00;;;;;;;;;;6259091;22;20000;-87
2023/08/25 02:27:59;;;;;;;0.00;0.00;;;;;;;;;;6260262;22;20000;-91
2023/08/25 02:30:25;;;;;;;0.00;0.00;;;;;;;;;;6261151;22;20011;-89
2023/08/25 02:32:51;;;;;;;0.00;0.00;;;;;;;;;;6262374;22;20008;-90
2023/08/25 02:35:17;;;;;;;0.00;0.00;;;;;;;;;;6262904;22;20011;-88
2023/08/25 02:38:04;;;;;;;0.00;0.00;;;19.50;99.90;;;;;;6261916;22;20410;-89
2023/08/25 02:40:30;;;;;;;0.00;0.00;;;19.40;99.90;;;;;;6265908;22;20096;-89
2023/08/25 02:42:56;;;;;;;0.00;0.00;;;;;;;;;;6272434;22;20004;-91
2023/08/25 02:45:25;;;;;;;0.00;0.00;;;20.10;99.90;;;;;;6263724;22;20083;-91
2023/08/25 02:47:52;;;;;;;0.00;0.00;;;19.40;99.90;;;;;;6249428;22;20026;-91
2023/08/25 02:50:19;;;;;;;0.00;0.00;;;21.30;99.90;;;;;;6250455;22;20008;-92
2023/08/25 02:52:45;;;;;;;0.00;0.00;;;19.30;99.90;;;;;;6251527;22;20004;-89
2023/08/25 02:55:14;;;;;;;0.00;0.00;;;19.80;99.90;;;;;;6250470;22;20066;-91
2023/08/25 02:57:40;;;;;;;0.00;0.00;;;;;;;;;;6250027;22;20004;-91
2023/08/25 03:00:08;;;;;;;0.00;0.00;;;19.30;99.90;;;;;;6250131;22;20007;-91
2023/08/25 03:02:34;;;;;;;0.00;0.00;;;19.30;99.90;;;;;;6250225;22;20519;-91
2023/08/25 03:05:00;;;;;;;0.00;0.00;;;;;;;;;;6251716;22;19996;-91
2023/08/25 03:07:26;;;;;;;0.00;0.00;;;;;;;;;;6252072;22;20006;-91
2023/08/25 03:09:52;;;;;;;0.00;0.00;;;;;;;;;;6250717;22;20018;-91
2023/08/25 03:12:18;;;;;;;0.00;0.00;;;;;;;;;;6250179;22;20007;-90
2023/08/25 03:14:43;;;;;;;0.00;0.00;;;;;;;;;;6251213;22;20008;-91
2023/08/25 03:17:10;;;;;;;0.00;0.00;;;;;;;;;;6251237;22;20098;-91
2023/08/25 03:19:37;;;;;;;0.00;0.00;;;;;;;;;;6253650;22;20021;-91
2023/08/25 03:22:03;;;;;;;0.00;0.00;;;19.00;99.90;;;;;;6253227;22;20008;-90
2023/08/25 03:24:29;;;;;;;0.00;0.00;;;;;;;;;;6252583;22;20019;-90
2023/08/25 03:26:57;;;;;;;0.00;0.00;;;19.00;99.90;;;;;;6278816;22;19999;-91
2023/08/25 03:29:23;;;;;;;0.00;0.00;;;19.00;99.90;;;;;;6252844;22;20003;-91
2023/08/25 03:31:49;;;;;;;0.00;0.00;;;;;;;;;;6252658;22;20008;-91
2023/08/25 03:34:15;;;;;;;0.00;0.00;;;;;;;;;;6253707;22;20012;-91
2023/08/25 03:36:41;;;;;;;0.00;0.00;;;;;;;;;;6251205;22;20436;-91
2023/08/25 03:39:07;;;;;;;0.00;0.00;;;;;;;;;;6252200;22;20066;-90
2023/08/25 03:41:33;;;;;;;0.00;0.00;;;;;;;;;;6253400;22;20098;-91
2023/08/25 03:43:59;;;;;;;0.00;0.00;;;;;;;;;;6253153;22;19999;-91
2023/08/25 03:46:25;;;;;;;0.00;0.00;;;;;;;;;;6253405;22;20498;-90
2023/08/25 03:48:51;;;;;;;0.00;0.00;;;;;;;;;;6253013;22;20039;-92
2023/08/25 03:51:17;;;;;;;0.00;0.00;;;18.90;99.90;;;;;;6252331;22;20014;-91
2023/08/25 03:53:43;;;;;;;0.00;0.00;;;;;;;;;;6251213;22;20011;-91
2023/08/25 03:56:09;;;;;;;0.00;0.00;;;;;;;;;;6252727;22;20019;-91
2023/08/25 03:58:35;;;;;;;0.00;0.00;;;;;;;;;;6254016;22;20054;-91
2023/08/25 04:01:01;;;;;;;0.00;0.00;;;;;;;;;;6251337;22;20494;-90
2023/08/25 04:03:27;;;;;;;0.00;0.00;;;;;;;;;;6254531;22;20001;-90
2023/08/25 04:05:53;;;;;;;0.00;0.00;;;;;;;;;;6253342;22;20075;-92
2023/08/25 04:08:19;;;;;;;0.00;0.00;;;;;;;;;;6253307;22;20081;-91
2023/08/25 04:10:46;;;;;;;0.00;0.00;;;18.70;99.90;;;;;;6248990;22;20014;-91
2023/08/25 04:13:12;;;;;;;0.00;0.00;;;;;;;;;;6252113;22;20037;-93
2023/08/25 04:15:38;;;;;;;0.00;0.00;;;;;;;;;;6251189;22;20000;-92
2023/08/25 04:18:04;;;;;;;0.00;0.00;;;18.70;99.90;;;;;;6253444;22;20057;-91
2023/08/25 04:20:30;;;;;;;0.00;0.00;;;;;;;;;;6249383;22;20008;-91
2023/08/25 04:22:56;;;;;;;0.00;0.00;;;;;;;;;;6250533;22;20007;-90
2023/08/25 04:25:23;;;;;;;0.00;0.00;;;;;;;;;;6252013;22;20057;-91
2023/08/25 04:27:48;;;;;;;0.00;0.00;;;18.70;99.90;;;;;;6252743;22;20024;-91
2023/08/25 04:30:14;;;;;;;0.00;0.00;;;;;;;;;;6250135;22;20004;-92
2023/08/25 04:32:40;;;;;;;0.00;0.00;;;18.00;99.90;;;;;;6250627;22;20014;-92
2023/08/25 04:35:07;;;;;;;0.00;0.00;;;;;;;;;;6250416;22;20432;-91
2023/08/25 04:37:33;;;;;;;0.00;0.00;;;18.60;99.90;;;;;;6250975;22;20062;-91
2023/08/25 04:40:00;;;;;;;0.00;0.00;;;;;;;;;;6250804;22;20000;-92
2023/08/25 04:42:26;;;;;;;0.00;0.00;;;18.60;99.90;;;;;;6252500;22;20006;-90
2023/08/25 04:44:52;;;;;;;0.00;0.00;;;18.60;99.90;;;;;;6252234;22;20078;-92
2023/08/25 04:47:17;;;;;;;0.00;0.00;;;;;;;;;;6251948;22;20006;-91
2023/08/25 04:49:44;;;;;;;0.00;0.00;;;;;;;;;;6249746;22;20003;-91
2023/08/25 04:52:09;;;;;;;0.00;0.00;;;18.60;99.90;;;;;;6250619;22;20010;-90
2023/08/25 04:54:35;;;;;;;0.00;0.00;;;;;;;;;;6252333;22;20000;-91
2023/08/25 04:57:02;;;;;;;0.00;0.00;;;;;;;;;;6253889;22;20000;-92
2023/08/25 04:59:27;;;;;;;0.00;0.00;;;18.70;99.90;;;;;;6252975;22;20267;-90
2023/08/25 05:01:53;;;;;;;0.00;0.00;;;;;;;;;;6252124;22;20014;-90
2023/08/25 05:04:19;;;;;;;0.00;0.00;;;;;;;;;;6252880;22;20029;-91
2023/08/25 05:06:45;;;;;;;0.00;0.00;;;;;;;;;;6252239;22;20000;-91
2023/08/25 05:09:11;;;;;;;0.00;0.00;;;;;;;;;;6252949;22;20011;-91
2023/08/25 05:11:39;;;;;;;0.00;0.00;;;;;;;;;;6251823;22;20091;-91
2023/08/25 05:14:05;;;;;;;0.00;0.00;;;18.70;99.90;;;;;;6252710;22;20049;-91
2023/08/25 05:16:31;;;;;;;0.00;0.00;;;;;;;;;;6252203;22;20352;-90
2023/08/25 05:18:57;;;;;;;0.00;0.00;;;;;;;;;;6251884;22;20387;-90
2023/08/25 05:21:23;;;;;;;0.00;0.00;;;;;;;;;;6252064;22;20060;-91
2023/08/25 05:23:53;;;;;;;0.00;0.00;;;;;;;;;;6251911;22;19999;-91
2023/08/25 05:26:18;;;;;;;0.00;0.00;;;18.70;99.90;;;;;;6251425;22;19999;-91
2023/08/25 05:28:44;;;;;;;0.00;0.00;;;;;;;;;;6249851;22;19992;-90
2023/08/25 05:31:11;;;;;;;0.00;0.00;;;;;;;;;;6252279;22;20004;-91
2023/08/25 05:33:38;;;;;;;0.00;0.00;;;;;;;;;;6252814;22;20042;-91
2023/08/25 05:36:04;;;;;;;0.00;0.00;;;18.90;99.90;;;;;;6252828;22;20153;-91
2023/08/25 05:38:30;;;;;;;0.00;0.00;;;;;;;;;;6253413;22;20004;-91
2023/08/25 05:40:56;;;;;;;0.00;0.00;;;;;;;;;;6251944;22;20042;-91
2023/08/25 05:43:21;;;;;;;0.00;0.00;;;19.00;99.90;;;;;;6253331;22;20004;-91
2023/08/25 05:45:47;;;;;;;0.00;0.00;;;;;;;;;;6253112;22;20003;-91
2023/08/25 05:48:13;;;;;;;0.00;0.00;;;;;;;;;;6252298;22;20031;-91
2023/08/25 05:50:39;;;;;;;0.00;0.00;;;;;;;;;;6253024;22;20000;-92
2023/08/25 05:53:05;;;;;;;0.00;0.00;;;;;;;;;;6253145;22;20034;-91
2023/08/25 05:55:31;;;;;;;0.00;0.00;;;;;;;;;;6252410;22;20411;-91
2023/08/25 05:57:57;;;;;;;0.00;0.00;;;;;;;;;;6252843;22;20008;-91
2023/08/25 06:00:23;;;;;;;0.00;0.00;;;;;;;;;;6253352;22;20345;-91
2023/08/25 06:02:49;;;;;;;0.00;0.00;;;;;;;;;;6252888;22;20322;-91
2023/08/25 06:05:15;;;;;;;0.00;0.00;;;;;;;;;;6253164;22;20023;-91
2023/08/25 06:07:41;;;;;;;0.00;0.00;;;;;;;;;;6252858;22;20004;-92
2023/08/25 06:10:08;;;;;;;0.00;0.00;;;19.60;99.90;;;;;;6254390;22;20094;-91
2023/08/25 06:12:33;;;;;;;0.00;0.00;;;19.70;99.90;;;;;;6254709;22;20008;-91
2023/08/25 06:14:59;;;;;;;0.00;0.00;;;;;;;;;;6254220;22;20034;-91
2023/08/25 06:17:25;;;;;;;0.00;0.00;;;;;;;;;;6253875;22;20332;-91
2023/08/25 06:19:51;;;;;;;0.00;0.00;;;;;;;;;;6253240;22;20010;-91
2023/08/25 06:22:17;;;;;;;0.00;0.00;;;;;;;;;;6254101;22;20011;-92
2023/08/25 06:24:43;;;;;;;0.00;0.00;;;;;;;;;;6253719;22;20377;-91
2023/08/25 06:27:09;;;;;;;0.00;0.00;;;;;;;;;;6254230;22;20007;-92
2023/08/25 06:29:34;;;;;;;0.00;0.00;;;19.90;99.90;;;;;;6255399;22;20003;-90
2023/08/25 06:32:00;;;;;;;0.00;0.00;;;;;;;;;;6255211;22;20057;-91
2023/08/25 06:34:27;;;;;;;0.00;0.00;;;;;;;;;;6256505;22;20093;-92
2023/08/25 06:36:53;;;;;;;0.00;0.00;;;;;;;;;;6256947;22;20440;-91
2023/08/25 06:39:20;;;;;;;0.00;0.00;;;;;;;;;;6257380;22;20000;-92
2023/08/25 06:41:46;;;;;;;0.00;0.00;;;;;;;;;;6258371;22;20011;-91
2023/08/25 06:44:12;;;;;;;0.00;0.00;;;;;;;;;;6258896;22;20004;-91
2023/08/25 06:46:38;;;;;;;0.00;0.00;;;;;;;;;;6259420;22;20026;-91
2023/08/25 06:49:06;;;;;;;0.00;0.00;;;;;;;;;;6259796;22;20008;-92
2023/08/25 06:51:32;;;;;;;0.00;0.00;;;;;;;;;;6261163;22;19996;-91
2023/08/25 06:54:01;;;;;;;0.00;0.00;;;;;;;;;;6290925;22;20042;-90
2023/08/25 06:56:27;;;;;;;0.00;0.00;;;;;;;;;;6264899;22;20003;-89
2023/08/25 06:58:53;;;;;;;0.00;0.00;;;;;;;;;;6265648;22;20011;-90
2023/08/25 07:01:19;;;;;;;0.00;0.00;;;;;;;;;;6267302;22;20015;-90
2023/08/25 07:03:45;;;;;;;0.00;0.00;;;;;;;;;;6271654;22;19992;-90
2023/08/25 07:06:10;;;;;;;0.00;0.00;;;;;;;;;;6256081;22;20059;-90
2023/08/25 07:08:37;;;;;;;0.00;0.00;;;;;;;;;;6252196;22;20027;-91
2023/08/25 07:11:03;;;;;;;0.00;0.00;;;;;;;;;;6251577;22;20007;-92
2023/08/25 07:13:31;;;;;;;0.00;0.00;;;;;;;;;;6252546;22;20015;-91
2023/08/25 07:15:57;;;;;;;0.00;0.00;;;;;;;;;;6252699;22;20031;-91
2023/08/25 07:18:24;;;;;;;0.00;0.00;;;;;;;;;;6250172;22;20000;-91
2023/08/25 07:20:50;;;;;;;0.00;0.00;;;;;;;;;;6250279;22;20012;-92
2023/08/25 07:23:16;;;;;;;0.00;0.00;;;;;;;;;;6251968;22;20462;-92
2023/08/25 07:25:43;;;;;;;0.00;0.00;;;;;;;;;;6251016;22;19996;-91
2023/08/25 07:28:10;;;;;;;0.00;0.00;;;;;;;;;;6249885;22;20000;-91
2023/08/25 07:30:37;;;;;;;0.00;0.00;;;21.30;99.90;;;;;;6248918;22;20031;-91
2023/08/25 07:33:04;;;;;;;0.00;0.00;;;;;;;;;;6250925;22;20000;-91
2023/08/25 07:35:33;;;;;;;0.00;0.00;;;21.30;99.90;;;;;;6249995;22;20008;-92
2023/08/25 07:37:59;;;;;;;0.00;0.00;;;;;;;;;;6252220;22;20008;-91
2023/08/25 07:40:24;;;;;;;0.00;0.00;;;21.60;99.90;;;;;;6251872;22;19999;-91
2023/08/25 07:42:50;;;;;;;0.00;0.00;;;;;;;;;;6252553;22;20000;-92
2023/08/25 07:45:16;;;;;;;0.00;0.00;;;;;;;;;;6251733;22;19996;-91
2023/08/25 07:47:42;;;;;;;0.00;0.00;;;;;;;;;;6252715;22;20314;-92
2023/08/25 07:50:08;;;;;;;0.00;0.00;;;21.80;99.90;;;;;;6252319;22;20025;-91
2023/08/25 07:52:34;;;;;;;0.00;0.00;;;;;;;;;;6249737;22;20012;-91
2023/08/25 07:55:00;;;;;;;0.00;0.00;;;;;;;;;;6251735;22;20003;-92
2023/08/25 07:57:28;;;;;;;0.00;0.00;;;;;;;;;;6251478;22;20069;-91
2023/08/25 07:59:53;;;;;;;0.00;0.00;;;;;;;;;;6251965;22;20035;-92
2023/08/25 08:02:19;;;;;;;0.00;0.00;;;;;;;;;;6252620;22;19996;-91
2023/08/25 08:04:45;;;;;;;0.00;0.00;;;;;;;;;;6252771;22;20004;-91
2023/08/25 08:07:11;;;;;;;0.00;0.00;;;;;;;;;;6254628;22;20079;-92
2023/08/25 08:09:37;;;;;;;0.00;0.00;;;;;;;;;;6254481;22;20415;-91
2023/08/25 08:12:03;;;;;;;0.00;0.00;;;;;;;;;;6254224;22;20026;-92
2023/08/25 08:14:29;;;;;;;0.00;0.00;;;;;;;;;;6254151;22;20288;-92
2023/08/25 08:16:56;;;;;;;0.00;0.00;;;;;;;;;;6253403;22;20069;-91
2023/08/25 08:19:22;;;;;;;0.00;0.00;;;;;;;;;;6252359;22;20086;-91
2023/08/25 08:21:48;;;;;;;0.00;0.00;;;;;;;;;;6252626;22;20004;-92
2023/08/25 08:24:14;;;;;;;0.00;0.00;;;;;;;;;;6253557;22;20011;-91
2023/08/25 08:26:40;;;;;;;0.00;0.00;;;;;;;;;;6252201;22;20081;-92
2023/08/25 08:29:06;;;;;;;0.00;0.00;;;;;;;;;;6253714;22;20000;-91
2023/08/25 08:31:32;;;;;;;0.00;0.00;;;;;;;;;;6248950;22;20057;-90
2023/08/25 08:33:58;;;;;;;0.00;0.00;;;;;;;;;;6253184;22;20007;-91
2023/08/25 08:36:24;;;;;;;0.00;0.00;;;;;;;;;;6252892;22;20035;-93
2023/08/25 08:38:50;;;;;;;0.00;0.00;;;;;;;;;;6254625;22;20004;-92
2023/08/25 08:41:17;;;;;;;0.00;0.00;;;25.00;99.90;;;;;;6252208;22;20004;-91
2023/08/25 08:43:45;;;;;;;0.00;0.00;;;25.00;99.90;;;;;;6253314;22;20003;-91
2023/08/25 08:46:16;;;;;;;0.00;0.00;;;25.00;99.90;;;;;;6251821;22;20049;-92
2023/08/25 08:48:43;;;;;;;0.00;0.00;;;25.10;99.90;;;;;;6250637;22;20057;-91
2023/08/25 08:51:14;;;;;;;0.00;0.00;;;25.20;99.90;;;;;;6251629;22;20016;-92
2023/08/25 08:53:41;;;;;;;0.00;0.00;;;25.30;99.90;;;;;;6250581;22;20046;-92
2023/08/25 08:56:07;;;;;;;0.00;0.00;;;;;;;;;;6249807;22;20008;-90
2023/08/25 08:58:34;;;;;;;0.00;0.00;;;;;;;;;;6250253;22;20007;-91
2023/08/25 09:01:01;;;;;;;0.00;0.00;;;25.20;99.90;;;;;;6251942;22;20017;-92
2023/08/25 09:03:32;;;;;;;0.00;0.00;;;25.30;99.90;;;;;;6250022;22;20342;-91
2023/08/25 09:06:00;;;;;;;0.00;0.00;;;25.20;99.90;;;;;;6251077;22;20026;-90
2023/08/25 09:08:27;;;;;;;0.00;0.00;;;25.20;99.90;;;;;;6250654;22;20012;-92
2023/08/25 09:10:53;;;;;;;0.00;0.00;;;;;;;;;;6249481;22;20011;-91
2023/08/25 09:13:19;;;;;;;0.00;0.00;;;25.00;99.90;;;;;;6251243;22;20003;-91
2023/08/25 09:15:49;;;;;;;0.00;0.00;;;;;;;;;;6250890;22;20057;-91
2023/08/25 09:18:15;;;;;;;0.00;0.00;;;;;;;;;;6251048;22;20003;-91
2023/08/25 09:20:41;;;;;;;0.00;0.00;;;;;;;;;;6251382;22;20019;-90
2023/08/25 09:23:08;;;;;;;0.00;0.00;;;;;;;;;;6250618;22;19996;-92
2023/08/25 09:25:34;;;;;;;0.00;0.00;;;;;;;;;;6247089;22;20238;-91
2023/08/25 09:28:02;;;;;;;0.00;0.00;;;24.50;99.90;;;;;;6249883;22;20026;-91
2023/08/25 09:30:41;;;;;;;0.00;0.00;;;24.50;99.90;;;;;;6250250;22;20004;-91
2023/08/25 09:33:08;;;;;;;0.00;0.00;;;24.60;99.90;;;;;;6250718;22;20007;-91
2023/08/25 09:35:34;;;;;;;0.00;0.00;;;;;;;;;;6249368;22;20479;-91
2023/08/25 09:38:00;;;;;;;0.00;0.00;;;;;;;;;;6250400;22;20658;-90
2023/08/25 09:40:30;;;;;;;0.00;0.00;;;;;;;;;;6250028;22;20094;-92
2023/08/25 09:43:01;;;;;;;0.00;0.00;;;24.40;99.90;;;;;;6249305;22;20000;-91
2023/08/25 09:45:28;;;;;;;0.00;0.00;;;24.30;99.90;;;;;;6250362;22;20004;-91
2023/08/25 09:47:55;;;;;;;0.00;0.00;;;;;;;;;;6247952;22;20004;-91
2023/08/25 09:50:20;;;;;;;0.00;0.00;;;24.20;99.90;;;;;;6248763;22;20007;-92
2023/08/25 09:52:47;;;;;;;0.00;0.00;;;24.20;99.90;;;;;;6251296;22;20436;-88
2023/08/25 09:55:14;;;;;;;0.00;0.00;;;26.00;99.90;;;;;;6248949;22;20224;-91
2023/08/25 09:57:43;;;;;;;0.00;0.00;;;24.90;99.90;;;;;;6250664;22;20007;-91
2023/08/25 10:00:10;;;;;;;0.00;0.00;;;;;;;;;;6249966;22;20007;-92
2023/08/25 10:02:36;;;;;;;0.00;0.00;;;;;;;;;;6249843;22;20120;-91
2023/08/25 10:05:03;;;;;;;0.00;0.00;;;24.60;99.90;;;;;;6249728;22;20007;-92
2023/08/25 10:07:31;;;;;;;0.00;0.00;;;24.50;99.90;;;;;;6249231;22;20083;-92
2023/08/25 10:09:57;;;;;;;0.00;0.00;;;;;;;;;;6246332;22;20030;-92
2023/08/25 10:12:25;;;;;;;0.00;0.00;;;24.20;99.90;;;;;;6250891;22;19996;-91
2023/08/25 10:14:52;;;;;;;0.00;0.00;;;24.20;99.90;;;;;;6249932;22;20003;-91
2023/08/25 10:17:19;;;;;;;0.00;0.00;;;24.10;99.90;;;;;;6251500;22;20000;-92
2023/08/25 10:19:50;;;;;;;0.00;0.00;;;24.00;99.90;;;;;;6250135;22;20003;-91
2023/08/25 10:22:15;;;;;;;0.00;0.00;;;;;;;;;;6249519;22;20004;-91
2023/08/25 10:24:43;;;;;;;0.00;0.00;;;23.80;99.90;;;;;;6251275;22;20004;-91
2023/08/25 10:27:09;;;;;;;0.00;0.00;;;23.60;99.90;;;;;;6249013;22;20501;-90
2023/08/25 10:29:35;;;;;;;0.00;0.00;;;;;;;;;;6248507;22;20007;-92
2023/08/25 10:32:02;;;;;;;0.00;0.00;;;23.40;99.90;;;;;;6250825;22;20008;-90
2023/08/25 10:34:46;;;;;;;0.00;0.00;;;23.40;99.90;;;;;;6249144;22;20008;-91
2023/08/25 10:37:21;;;;;;;0.00;0.00;;;24.90;99.90;;;;;;6249284;22;20000;-92
2023/08/25 10:39:59;;;;;;;0.00;0.00;;;23.30;99.90;;;;;;6251813;22;20061;-92
2023/08/25 10:42:32;;;;;;;0.00;0.00;;;23.10;99.90;;;;;;6252426;22;20003;-90
2023/08/25 10:45:09;;;;;;;0.00;0.00;;;23.00;99.90;;;;;;6252096;22;20318;-91
2023/08/25 10:47:45;;;;;;;0.00;0.00;;;22.80;99.90;;;;;;6248445;22;20003;-90
2023/08/25 10:50:11;;;;;;;0.00;0.00;;;;;;;;;;6247463;22;20019;-90
2023/08/25 10:52:50;;;;;;;0.00;0.00;;;22.30;99.90;;;;;;6249611;22;20427;-91
2023/08/25 10:55:28;;;;;;;0.00;0.00;;;22.10;99.90;;;;;;6247916;22;20004;-92
2023/08/25 10:58:02;;;;;;;0.00;0.00;;;22.20;99.90;;;;;;6248967;22;20011;-91
2023/08/25 11:00:36;;;;;;;0.00;0.00;;;22.30;99.90;;;;;;6247285;22;20011;-91
2023/08/25 11:03:03;;;;;;;0.00;0.00;;;22.10;99.90;;;;;;6248978;22;20027;-91
2023/08/25 11:05:29;;;;;;;0.00;0.00;;;;;;;;;;6246602;22;20406;-91
2023/08/25 11:07:55;;;;;;;0.00;0.00;;;;;;;;;;6249076;22;20341;-91
2023/08/25 11:10:27;;;;;;;0.00;0.00;;;22.00;99.90;;;;;;6249297;22;19999;-91
2023/08/25 11:12:53;;;;;;;0.00;0.00;;;22.00;99.90;;;;;;6249328;22;20004;-91
2023/08/25 11:15:22;;;;;;;0.00;0.00;;;23.20;99.90;;;;;;6248536;22;20008;-91
2023/08/25 11:17:48;;;;;;;0.00;0.00;;;22.00;99.90;;;;;;6248830;22;20008;-91
2023/08/25 11:20:16;;;;;;;0.00;0.00;;;22.00;99.90;;;;;;6248895;22;20015;-91
2023/08/25 11:22:51;;;;;;;0.00;0.00;;;22.10;99.90;;;;;;6249593;22;20011;-92
2023/08/25 11:25:17;;;;;;;0.00;0.00;;;;;;;;;;6249279;22;20026;-91
2023/08/25 11:27:43;;;;;;;0.00;0.00;;;;;;;;;;6250596;22;20090;-91
2023/08/25 11:30:10;;;;;;;0.00;0.00;;;22.30;99.90;;;;;;6249032;22;20011;-90
2023/08/25 11:32:36;;;;;;;0.00;0.00;;;;;;;;;;6249834;22;20004;-92
2023/08/25 11:35:05;;;;;;;0.00;0.00;;;22.20;99.90;;;;;;6246572;22;20014;-91
2023/08/25 11:37:31;;;;;;;0.00;0.00;;;;;;;;;;6248443;22;20471;-92
2023/08/25 11:39:57;;;;;;;0.00;0.00;;;22.30;99.90;;;;;;6252598;22;20157;-91
2023/08/25 11:42:23;;;;;;;0.00;0.00;;;;;;;;;;6250369;22;20449;-91
2023/08/25 11:44:52;;;;;;;0.00;0.00;;;;;;;;;;6251097;22;20031;-91
2023/08/25 11:47:21;;;;;;;;;;;22.70;99.90;;;;;;6253281;22;20070;-91
2023/08/25 11:49:51;;;;;;;0.00;0.00;;;;;;;;;;6249014;22;20410;-91
2023/08/25 11:52:17;;;;;;;0.00;0.00;;;;;;;;;;6251066;22;20007;-92
2023/08/25 11:54:45;;;;;;;0.00;0.00;;;23.00;99.90;;;;;;6248573;22;20027;-90
2023/08/25 11:57:11;;;;;;;0.00;0.00;;;;;;;;;;6252315;22;20482;-90
2023/08/25 11:59:41;;;;;;;0.00;0.00;;;22.70;99.90;;;;;;6253458;22;20007;-91
2023/08/25 12:02:07;;;;;;;0.00;0.00;;;;;;;;;;6246152;22;20253;-90
2023/08/25 12:04:33;;;;;;;0.00;0.00;;;;;;;;;;6250042;22;20086;-91
2023/08/25 12:07:01;;;;;;;0.00;0.00;;;;;;;;;;6251330;22;20081;-91
2023/08/25 12:09:27;;;;;;;0.00;0.00;;;;;;;;;;6250083;22;20003;-91
2023/08/25 12:11:54;;;;;;;0.00;0.00;;;22.50;99.90;;;;;;6249241;22;20003;-92
2023/08/25 12:14:30;;;;;;;0.00;0.00;;;24.20;99.90;;;;;;6249632;22;20004;-90
2023/08/25 12:16:57;;;;;;;0.00;0.00;;;22.50;99.90;;;;;;6249712;22;20000;-91
2023/08/25 12:19:24;;;;;;;0.00;0.00;;;22.40;99.90;;;;;;6251133;22;20008;-91
2023/08/25 12:21:54;;;;;;;0.00;0.00;;;22.30;99.90;;;;;;6252355;22;20008;-91
2023/08/25 12:24:20;;;;;;;0.00;0.00;;;;;;;;;;6250988;22;20041;-90
2023/08/25 12:26:46;;;;;;;0.00;0.00;;;22.40;99.90;;;;;;6252350;22;20078;-90
2023/08/25 12:29:12;;;;;;;0.00;0.00;;;24.50;99.90;;;;;;6251118;22;20000;-90
2023/08/25 12:31:38;;;;;;;0.00;0.00;;;;;;;;;;6250642;22;20011;-92
2023/08/25 12:34:04;;;;;;;0.00;0.00;;;;;;;;;;6246187;22;20037;-90
2023/08/25 12:36:29;;;;;;;0.00;0.00;;;22.50;99.90;;;;;;6247221;22;20476;-91
2023/08/25 12:38:55;;;;;;;0.00;0.00;;;;;;;;;;6255923;22;20019;-92
2023/08/25 12:41:21;;;;;;;0.00;0.00;;;;;;;;;;6255245;22;20003;-91
2023/08/25 12:43:47;;;;;;;0.00;0.00;;;;;;;;;;6254808;22;20008;-92
2023/08/25 12:46:13;;;;;;;0.00;0.00;;;;;;;;;;6254357;22;20455;-92
2023/08/25 12:48:39;;;;;;;0.00;0.00;;;22.60;99.90;;;;;;6255622;22;20000;-91
2023/08/25 12:51:05;;;;;;;0.00;0.00;;;;;;;;;;6254618;22;20018;-92
2023/08/25 12:53:30;;;;;;;0.00;0.00;;;22.60;99.90;;;;;;6254605;22;20008;-92
2023/08/25 12:55:56;;;;;;;0.00;0.00;;;;;;;;;;6254693;22;20321;-91
2023/08/25 12:58:22;;;;;;;0.00;0.00;;;22.80;99.90;;;;;;6254731;22;20034;-90
2023/08/25 13:00:48;;;;;;;0.00;0.00;;;;;;;;;;6255306;22;19995;-91
2023/08/25 13:03:14;;;;;;;0.00;0.00;;;;;;;;;;6255126;22;20367;-89
2023/08/25 13:05:40;;;;;;;0.00;0.00;;;23.30;99.90;;;;;;6254058;22;20051;-90
2023/08/25 13:08:06;;;;;;;0.00;0.00;;;;;;;;;;6253307;22;20008;-91
2023/08/25 13:10:32;;;;;;;0.00;0.00;;;;;;;;;;6248307;22;20019;-89
2023/08/25 13:12:59;;;;;;;0.00;0.00;;;23.50;99.90;;;;;;6247731;22;20018;-91
2023/08/25 13:15:25;;;;;;;0.00;0.00;;;;;;;;;;6249365;22;20078;-91
2023/08/25 13:17:51;;;;;;;0.00;0.00;;;;;;;;;;6248185;22;20444;-91
2023/08/25 13:20:17;;;;;;;0.00;0.00;;;;;;;;;;6250581;22;20083;-90
2023/08/25 13:22:43;;;;;;;0.00;0.00;;;;;;;;;;6252132;22;20010;-92
2023/08/25 13:25:08;;;;;;;0.00;0.00;;;23.50;99.90;;;;;;6251694;22;20086;-91
2023/08/25 13:27:37;;;;;;;0.00;0.00;;;;;;;;;;6251465;22;20067;-91
2023/08/25 13:30:03;;;;;;;0.00;0.00;;;;;;;;;;6251512;22;20027;-90
2023/08/25 13:32:30;;;;;;;0.00;0.00;;;;;;;;;;6249663;22;20052;-91
2023/08/25 13:34:56;;;;;;;0.00;0.00;;;;;;;;;;6252466;22;20084;-91
2023/08/25 13:37:22;;;;;;;0.00;0.00;;;;;;;;;;6253024;22;20000;-91
2023/08/25 13:39:48;;;;;;;0.00;0.00;;;;;;;;;;6252315;22;20006;-91
2023/08/25 13:42:15;;;;;;;0.00;0.00;;;24.20;99.90;;;;;;6252444;22;20412;-91
2023/08/25 13:44:41;;;;;;;0.00;0.00;;;;;;;;;;6252757;22;20072;-91
2023/08/25 13:47:07;;;;;;;0.00;0.00;;;;;;;;;;6253614;22;20041;-90
2023/08/25 13:49:34;;;;;;;0.00;0.00;;;;;;;;;;6249508;22;20000;-91
2023/08/25 13:52:00;;;;;;;0.00;0.00;;;24.40;99.90;;;;;;6244178;22;20175;-90
2023/08/25 13:54:26;;;;;;;0.00;0.00;;;;;;;;;;6246287;22;20027;-91
2023/08/25 13:56:52;;;;;;;0.00;0.00;;;;;;;;;;6248193;22;20081;-91
2023/08/25 13:59:17;;;;;;;0.00;0.00;;;;;;;;;;6249780;22;20003;-90